createdAt,value
2022-08-17T00:01:29.548Z,21.60
2022-08-17T00:03:58.425Z,22.20
2022-08-17T00:06:27.465Z,21.80
2022-08-17T00:08:58.791Z,17.20
2022-08-17T00:11:31.774Z,19.60
2022-08-17T00:14:00.282Z,21.50
2022-08-17T00:16:55.921Z,21.60
2022-08-17T00:19:21.661Z,20.10
2022-08-17T00:22:29.583Z,19.20
2022-08-17T00:24:36.902Z,19.30
2022-08-17T00:27:04.046Z,18.10
2022-08-17T00:29:31.685Z,21.00
2022-08-17T00:31:58.651Z,21.10
2022-08-17T00:34:25.616Z,20.10
2022-08-17T00:36:54.946Z,20.10
2022-08-17T00:39:21.917Z,20.00
2022-08-17T00:41:48.948Z,20.50
2022-08-17T00:44:16.470Z,19.00
2022-08-17T00:46:44.553Z,19.00
2022-08-17T00:49:12.102Z,17.40
2022-08-17T00:51:44.272Z,16.90
2022-08-17T00:54:13.478Z,17.90
2022-08-17T00:56:44.420Z,19.70
2022-08-17T00:59:13.452Z,19.60
2022-08-17T01:01:40.834Z,20.60
2022-08-17T01:04:08.357Z,18.20
2022-08-17T01:06:35.226Z,18.80
2022-08-17T01:09:04.831Z,19.40
2022-08-17T01:11:33.010Z,19.20
2022-08-17T01:13:59.835Z,20.30
2022-08-17T01:16:28.359Z,18.30
2022-08-17T01:18:57.504Z,21.10
2022-08-17T01:21:24.456Z,20.70
2022-08-17T01:23:51.593Z,19.20
2022-08-17T01:26:19.387Z,21.10
2022-08-17T01:28:53.740Z,20.30
2022-08-17T01:31:23.620Z,20.80
2022-08-17T01:33:50.500Z,16.90
2022-08-17T01:36:17.616Z,18.70
2022-08-17T01:38:44.567Z,20.80
2022-08-17T01:41:13.737Z,20.10
2022-08-17T01:46:08.012Z,20.80
2022-08-17T01:48:36.342Z,17.90
2022-08-17T01:51:04.014Z,19.90
2022-08-17T01:56:01.154Z,20.50
2022-08-17T01:58:28.253Z,20.70
2022-08-17T02:01:01.215Z,18.80
2022-08-17T02:03:29.325Z,19.80
2022-08-17T02:05:56.564Z,19.60
2022-08-17T02:08:32.546Z,16.30
2022-08-17T02:11:11.292Z,20.30
2022-08-17T02:13:38.781Z,16.10
2022-08-17T02:16:05.826Z,19.50
2022-08-17T02:18:32.891Z,15.60
2022-08-17T02:21:00.013Z,17.40
2022-08-17T02:23:28.505Z,18.20
2022-08-17T02:25:57.772Z,16.00
2022-08-17T02:28:24.744Z,15.80
2022-08-17T02:33:37.214Z,19.60
2022-08-17T02:36:09.510Z,19.30
2022-08-17T02:38:37.070Z,15.40
2022-08-17T02:41:04.622Z,20.30
2022-08-17T02:43:31.853Z,19.50
2022-08-17T02:45:58.756Z,15.50
2022-08-17T02:48:31.058Z,17.10
2022-08-17T02:50:59.391Z,16.40
2022-08-17T02:53:26.597Z,19.70
2022-08-17T02:55:53.508Z,15.20
2022-08-17T02:58:35.021Z,18.00
2022-08-17T03:01:06.327Z,15.20
2022-08-17T03:03:33.937Z,19.20
2022-08-17T03:06:01.339Z,15.30
2022-08-17T03:08:28.595Z,17.60
2022-08-17T03:10:55.686Z,16.00
2022-08-17T03:13:23.102Z,15.20
2022-08-17T03:15:51.240Z,15.20
2022-08-17T03:18:25.286Z,17.90
2022-08-17T03:20:58.060Z,16.00
2022-08-17T03:23:25.822Z,15.00
2022-08-17T03:25:55.190Z,15.00
2022-08-17T03:28:23.757Z,18.70
2022-08-17T03:30:51.593Z,15.10
2022-08-17T03:33:19.089Z,19.70
2022-08-17T03:35:46.570Z,17.00
2022-08-17T03:38:17.370Z,18.70
2022-08-17T03:40:57.810Z,19.20
2022-08-17T03:43:28.263Z,19.80
2022-08-17T03:46:34.285Z,15.10
2022-08-17T03:49:19.889Z,16.10
2022-08-17T03:52:05.790Z,18.20
2022-08-17T03:54:51.540Z,15.00
2022-08-17T03:57:19.395Z,19.80
2022-08-17T03:59:47.719Z,15.20
2022-08-17T04:02:21.322Z,15.10
2022-08-17T04:04:51.498Z,15.90
2022-08-17T04:07:19.709Z,15.40
2022-08-17T04:09:47.021Z,17.60
2022-08-17T04:12:18.233Z,19.90
2022-08-17T04:14:52.890Z,19.80
2022-08-17T04:17:23.323Z,20.10
2022-08-17T04:19:50.674Z,19.90
2022-08-17T04:22:31.994Z,19.80
2022-08-17T04:25:07.816Z,20.20
2022-08-17T04:27:35.706Z,15.70
2022-08-17T04:30:02.904Z,19.80
2022-08-17T04:33:05.366Z,17.00
2022-08-17T04:35:18.489Z,17.30
2022-08-17T04:37:45.635Z,19.40
2022-08-17T04:40:31.349Z,15.60
2022-08-17T04:43:15.001Z,16.40
2022-08-17T04:45:51.247Z,15.40
2022-08-17T04:48:35.346Z,16.90
2022-08-17T04:51:12.029Z,19.10
2022-08-17T04:53:40.332Z,19.70
2022-08-17T04:56:07.997Z,17.50
2022-08-17T04:58:44.367Z,19.70
2022-08-17T05:01:11.581Z,15.40
2022-08-17T05:03:38.692Z,15.90
2022-08-17T05:06:06.083Z,15.70
2022-08-17T05:08:33.335Z,19.80
2022-08-17T05:11:00.620Z,15.80
2022-08-17T05:13:29.845Z,17.10
2022-08-17T05:15:58.329Z,16.70
2022-08-17T05:18:25.989Z,19.80
2022-08-17T05:20:53.499Z,16.00
2022-08-17T05:23:21.776Z,17.70
2022-08-17T05:25:50.337Z,16.00
2022-08-17T05:28:18.649Z,16.10
2022-08-17T05:30:50.869Z,19.80
2022-08-17T05:33:19.671Z,16.40
2022-08-17T05:35:49.903Z,18.40
2022-08-17T05:38:18.061Z,18.10
2022-08-17T05:40:45.446Z,21.00
2022-08-17T05:43:12.771Z,21.00
2022-08-17T05:45:55.362Z,17.90
2022-08-17T05:48:39.592Z,17.00
2022-08-17T05:51:19.447Z,16.50
2022-08-17T05:53:51.182Z,21.10
2022-08-17T05:56:41.688Z,21.30
2022-08-17T05:59:08.851Z,21.60
2022-08-17T06:01:44.195Z,17.90
2022-08-17T06:04:14.269Z,19.10
2022-08-17T06:07:04.229Z,19.70
2022-08-17T06:09:45.613Z,21.60
2022-08-17T06:12:19.716Z,17.20
2022-08-17T06:14:46.943Z,21.50
2022-08-17T06:17:15.583Z,20.90
2022-08-17T06:19:45.784Z,21.80
2022-08-17T06:22:14.117Z,22.00
2022-08-17T06:24:44.122Z,22.00
2022-08-17T06:27:16.857Z,17.40
2022-08-17T06:29:52.536Z,22.10
2022-08-17T06:32:19.583Z,17.80
2022-08-17T06:34:46.686Z,22.20
2022-08-17T06:37:22.476Z,22.20
2022-08-17T06:40:15.406Z,22.50
2022-08-17T06:43:05.759Z,22.20
2022-08-17T06:46:11.399Z,19.10
2022-08-17T06:48:45.312Z,18.10
2022-08-17T06:51:24.328Z,18.10
2022-08-17T06:53:59.566Z,19.00
2022-08-17T06:56:53.132Z,22.40
2022-08-17T06:59:54.604Z,22.20
2022-08-17T07:02:28.893Z,23.10
2022-08-17T07:04:56.852Z,22.80
2022-08-17T07:07:42.470Z,22.00
2022-08-17T07:10:10.102Z,18.70
2022-08-17T07:15:08.607Z,20.30
2022-08-17T07:17:47.409Z,19.70
2022-08-17T07:20:17.760Z,22.20
2022-08-17T07:22:59.682Z,19.30
2022-08-17T07:25:28.600Z,21.90
2022-08-17T07:27:56.389Z,23.40
2022-08-17T07:30:23.360Z,20.20
2022-08-17T07:32:57.827Z,22.20
2022-08-17T07:35:31.222Z,22.50
2022-08-17T07:38:24.219Z,20.10
2022-08-17T07:41:03.351Z,22.50
2022-08-17T07:43:39.504Z,20.90
2022-08-17T07:46:40.594Z,23.10
2022-08-17T07:49:10.533Z,23.30
2022-08-17T07:54:14.608Z,23.50
2022-08-17T07:56:41.883Z,21.20
2022-08-17T07:59:13.275Z,20.60
2022-08-17T08:01:44.321Z,23.80
2022-08-17T08:04:43.196Z,24.30
2022-08-17T08:07:12.141Z,23.80
2022-08-17T08:09:39.112Z,24.80
2022-08-17T08:12:21.746Z,21.40
2022-08-17T08:14:56.236Z,24.70
2022-08-17T08:17:25.106Z,24.40
2022-08-17T08:19:52.060Z,20.70
2022-08-17T08:22:22.248Z,21.60
2022-08-17T08:25:12.237Z,21.30
2022-08-17T08:27:39.122Z,25.00
2022-08-17T08:30:16.566Z,24.70
2022-08-17T08:32:48.033Z,22.20
2022-08-17T08:35:32.717Z,21.70
2022-08-17T08:38:18.585Z,25.90
2022-08-17T08:41:00.638Z,25.80
2022-08-17T08:46:13.597Z,26.10
2022-08-17T08:48:56.015Z,26.20
2022-08-17T08:51:42.837Z,24.20
2022-08-17T08:54:15.613Z,22.50
2022-08-17T08:56:53.984Z,26.50
2022-08-17T08:59:41.870Z,25.70
2022-08-17T09:02:12.141Z,24.40
2022-08-17T09:05:12.973Z,26.60
2022-08-17T09:07:54.720Z,25.20
2022-08-17T09:10:34.951Z,23.00
2022-08-17T09:13:18.710Z,26.60
2022-08-17T09:15:48.235Z,23.50
2022-08-17T09:19:00.370Z,26.60
2022-08-17T09:21:13.941Z,27.00
2022-08-17T09:23:45.294Z,26.40
2022-08-17T09:26:17.008Z,26.40
2022-08-17T09:28:48.241Z,28.00
2022-08-17T09:31:18.880Z,27.90
2022-08-17T09:36:20.864Z,27.60
2022-08-17T09:39:08.230Z,27.40
2022-08-17T09:41:48.876Z,28.40
2022-08-17T09:44:31.447Z,25.30
2022-08-17T09:47:07.343Z,25.20
2022-08-17T09:49:38.199Z,28.80
2022-08-17T09:52:19.783Z,31.30
2022-08-17T09:54:47.493Z,30.00
2022-08-17T09:57:30.440Z,33.90
2022-08-17T10:00:16.096Z,34.70
2022-08-17T10:02:53.590Z,36.10
2022-08-17T10:05:29.397Z,37.10
2022-08-17T10:08:22.998Z,37.60
2022-08-17T10:10:58.858Z,38.40
2022-08-17T10:13:41.256Z,39.00
2022-08-17T10:16:30.590Z,39.80
2022-08-17T10:18:57.461Z,38.00
2022-08-17T10:21:44.386Z,41.20
2022-08-17T10:24:30.114Z,41.70
2022-08-17T10:26:58.624Z,41.60
2022-08-17T10:29:47.357Z,41.90
2022-08-17T10:32:25.111Z,42.40
2022-08-17T10:35:10.327Z,43.20
2022-08-17T10:37:37.238Z,45.00
2022-08-17T10:40:17.429Z,44.80
2022-08-17T10:42:50.199Z,44.10
2022-08-17T10:45:19.107Z,44.60
2022-08-17T10:47:56.048Z,44.70
2022-08-17T10:50:42.848Z,45.30
2022-08-17T10:53:10.022Z,47.60
2022-08-17T10:55:39.095Z,46.30
2022-08-17T10:58:20.925Z,46.40
2022-08-17T11:00:53.975Z,49.10
2022-08-17T11:03:23.510Z,48.80
2022-08-17T11:05:52.271Z,48.70
2022-08-17T11:08:19.167Z,48.60
2022-08-17T11:10:52.078Z,47.60
2022-08-17T11:13:38.539Z,48.90
2022-08-17T11:16:08.941Z,50.20
2022-08-17T11:18:41.816Z,48.70
2022-08-17T11:21:28.257Z,50.90
2022-08-17T11:24:14.035Z,52.60
2022-08-17T11:26:46.721Z,51.40
2022-08-17T11:29:19.039Z,49.10
2022-08-17T11:31:58.430Z,50.90
2022-08-17T11:34:27.796Z,50.80
2022-08-17T11:37:02.043Z,50.50
2022-08-17T11:39:28.900Z,52.10
2022-08-17T11:41:55.817Z,49.80
2022-08-17T11:44:28.785Z,50.90
2022-08-17T11:47:23.893Z,50.90
2022-08-17T11:50:09.510Z,50.40
2022-08-17T11:52:47.168Z,50.60
2022-08-17T11:55:35.666Z,49.30
2022-08-17T11:58:04.351Z,48.90
2022-08-17T12:00:40.613Z,49.80
2022-08-17T12:03:22.865Z,52.00
2022-08-17T12:05:50.324Z,50.80
2022-08-17T12:08:21.480Z,51.80
2022-08-17T12:10:57.237Z,51.30
2022-08-17T12:13:30.544Z,53.10
2022-08-17T12:16:07.170Z,50.10
2022-08-17T12:18:37.397Z,49.60
2022-08-17T12:21:13.469Z,48.50
2022-08-17T12:23:44.188Z,50.70
2022-08-17T12:26:11.330Z,48.00
2022-08-17T12:28:44.273Z,46.60
2022-08-17T12:31:17.846Z,46.70
2022-08-17T12:33:46.304Z,48.60
2022-08-17T12:36:15.141Z,50.80
2022-08-17T12:38:49.295Z,50.00
2022-08-17T12:41:28.962Z,50.90
2022-08-17T12:44:02.099Z,50.50
2022-08-17T12:46:30.332Z,51.60
2022-08-17T12:49:11.311Z,47.70
2022-08-17T12:51:42.422Z,47.30
2022-08-17T12:54:20.666Z,47.90
2022-08-17T12:56:47.886Z,49.10
2022-08-17T12:59:15.270Z,51.50
2022-08-17T13:01:56.715Z,53.10
2022-08-17T13:04:24.201Z,51.70
2022-08-17T13:06:59.937Z,52.90
2022-08-17T13:09:36.038Z,53.50
2022-08-17T13:12:07.928Z,52.00
2022-08-17T13:14:35.405Z,52.60
2022-08-17T13:17:08.336Z,51.60
2022-08-17T13:19:48.004Z,51.10
2022-08-17T13:22:14.921Z,52.40
2022-08-17T13:24:53.047Z,50.90
2022-08-17T13:27:21.197Z,50.80
2022-08-17T13:29:53.112Z,51.90
2022-08-17T13:32:23.119Z,51.10
2022-08-17T13:35:13.475Z,53.30
2022-08-17T13:37:45.394Z,50.50
2022-08-17T13:40:12.273Z,53.20
2022-08-17T13:42:52.876Z,51.40
2022-08-17T13:45:35.908Z,50.50
2022-08-17T13:48:16.173Z,50.10
2022-08-17T13:50:45.876Z,51.30
2022-08-17T13:53:17.284Z,49.10
2022-08-17T13:55:53.339Z,48.90
2022-08-17T13:58:22.377Z,48.90
2022-08-17T14:00:51.571Z,48.60
2022-08-17T14:03:18.803Z,51.00
2022-08-17T14:05:46.093Z,51.10
2022-08-17T14:08:14.195Z,50.00
2022-08-17T14:10:41.081Z,50.90
2022-08-17T14:13:07.990Z,49.90
2022-08-17T14:15:54.627Z,50.10
2022-08-17T14:18:55.541Z,49.70
2022-08-17T14:21:09.477Z,50.70
2022-08-17T14:23:37.066Z,47.60
2022-08-17T14:26:04.714Z,49.10
2022-08-17T14:28:32.181Z,48.40
2022-08-17T14:31:00.707Z,46.60
2022-08-17T14:33:28.349Z,46.60
2022-08-17T14:35:55.909Z,46.60
2022-08-17T14:38:23.403Z,47.10
2022-08-17T14:40:50.306Z,47.20
2022-08-17T14:43:17.986Z,48.00
2022-08-17T14:45:44.895Z,47.00
2022-08-17T14:48:11.847Z,46.90
2022-08-17T14:50:40.983Z,49.50
2022-08-17T14:53:09.091Z,46.70
2022-08-17T14:55:36.862Z,48.70
2022-08-17T14:58:04.167Z,48.20
2022-08-17T15:00:31.550Z,45.00
2022-08-17T15:03:00.064Z,47.00
2022-08-17T15:05:31.282Z,44.60
2022-08-17T15:07:58.596Z,47.00
2022-08-17T15:10:26.072Z,46.40
2022-08-17T15:12:53.226Z,45.60
2022-08-17T15:15:20.243Z,43.70
2022-08-17T15:17:47.174Z,45.10
2022-08-17T15:20:15.658Z,45.30
2022-08-17T15:22:43.606Z,44.60
2022-08-17T15:25:10.776Z,44.10
2022-08-17T15:27:37.637Z,41.50
2022-08-17T15:30:05.696Z,43.50
2022-08-17T15:32:36.296Z,41.00
2022-08-17T15:35:04.105Z,43.20
2022-08-17T15:37:32.114Z,41.40
2022-08-17T15:40:01.216Z,43.60
2022-08-17T15:42:29.310Z,40.60
2022-08-17T15:44:56.227Z,43.50
2022-08-17T15:47:23.280Z,42.90
2022-08-17T15:49:50.837Z,41.20
2022-08-17T15:52:22.566Z,42.70
2022-08-17T15:54:53.590Z,45.70
2022-08-17T15:57:20.499Z,43.50
2022-08-17T15:59:52.126Z,44.70
2022-08-17T16:03:14.822Z,44.60
2022-08-17T16:05:13.804Z,46.80
2022-08-17T16:07:40.760Z,47.70
2022-08-17T16:10:08.014Z,45.80
2022-08-17T16:12:34.954Z,48.90
2022-08-17T16:15:02.566Z,45.80
2022-08-17T16:17:39.259Z,46.00
2022-08-17T16:20:08.527Z,48.10
2022-08-17T16:22:37.727Z,46.50
2022-08-17T16:25:17.385Z,46.40
2022-08-17T16:27:44.700Z,46.30
2022-08-17T16:30:17.041Z,47.50
2022-08-17T16:32:45.306Z,47.00
2022-08-17T16:35:14.229Z,48.60
2022-08-17T16:37:41.819Z,46.30
2022-08-17T16:40:12.721Z,47.60
2022-08-17T16:42:40.067Z,47.20
2022-08-17T16:45:14.686Z,47.80
2022-08-17T16:47:42.009Z,47.30
2022-08-17T16:50:11.013Z,46.30
2022-08-17T16:52:38.298Z,44.70
2022-08-17T16:55:06.515Z,44.40
2022-08-17T16:57:33.454Z,43.70
2022-08-17T17:00:00.502Z,43.80
2022-08-17T17:02:32.158Z,43.70
2022-08-17T17:05:09.095Z,46.10
2022-08-17T17:07:55.437Z,42.60
2022-08-17T17:10:23.645Z,42.20
2022-08-17T17:13:02.507Z,40.30
2022-08-17T17:16:47.004Z,40.50
2022-08-17T17:19:34.513Z,39.40
2022-08-17T17:22:02.521Z,39.20
2022-08-17T17:24:37.036Z,37.80
2022-08-17T17:27:07.235Z,38.50
2022-08-17T17:29:47.317Z,36.60
2022-08-17T17:32:20.774Z,35.40
2022-08-17T17:34:51.319Z,35.30
2022-08-17T17:37:22.468Z,35.10
2022-08-17T17:39:55.328Z,34.30
2022-08-17T17:42:24.627Z,33.70
2022-08-17T17:44:58.175Z,33.80
2022-08-17T17:47:25.234Z,33.30
2022-08-17T17:49:52.244Z,33.10
2022-08-17T17:52:37.966Z,32.70
2022-08-17T17:55:19.905Z,32.90
2022-08-17T17:57:49.783Z,32.30
2022-08-17T18:00:23.527Z,31.90
2022-08-17T18:03:09.073Z,31.20
2022-08-17T18:05:54.130Z,30.90
2022-08-17T18:08:34.185Z,31.80
2022-08-17T18:11:09.198Z,31.10
2022-08-17T18:13:37.087Z,30.40
2022-08-17T18:16:05.688Z,30.70
2022-08-17T18:18:39.721Z,30.10
2022-08-17T18:21:17.853Z,30.00
2022-08-17T18:23:48.004Z,29.70
2022-08-17T18:26:33.712Z,30.30
2022-08-17T18:29:02.235Z,29.60
2022-08-17T18:31:29.148Z,29.20
2022-08-17T18:34:36.140Z,29.30
2022-08-17T18:37:06.705Z,29.30
2022-08-17T18:39:33.677Z,29.00
2022-08-17T18:42:00.834Z,29.60
2022-08-17T18:44:30.513Z,28.90
2022-08-17T18:47:06.263Z,28.40
2022-08-17T18:49:33.595Z,28.90
2022-08-17T18:52:27.962Z,28.20
2022-08-17T18:55:03.433Z,28.40
2022-08-17T18:57:32.424Z,28.80
2022-08-17T19:02:45.992Z,28.10
2022-08-17T19:05:28.252Z,27.90
2022-08-17T19:08:13.681Z,28.10
2022-08-17T19:10:46.911Z,27.80
2022-08-17T19:13:24.091Z,28.20
2022-08-17T19:16:13.944Z,27.60
2022-08-17T19:18:53.205Z,27.40
2022-08-17T19:21:25.247Z,27.50
2022-08-17T19:23:58.860Z,27.00
2022-08-17T19:26:53.885Z,27.20
2022-08-17T19:29:25.621Z,27.20
2022-08-17T19:31:55.247Z,26.80
2022-08-17T19:34:33.526Z,28.30
2022-08-17T19:37:12.541Z,28.90
2022-08-17T19:39:54.532Z,26.00
2022-08-17T19:42:31.072Z,25.80
2022-08-17T19:45:12.455Z,25.80
2022-08-17T19:47:54.878Z,25.00
2022-08-17T19:50:23.558Z,25.50
2022-08-17T19:53:07.562Z,28.00
2022-08-17T19:55:52.655Z,24.90
2022-08-17T19:58:28.790Z,28.20
2022-08-17T20:00:55.940Z,25.20
2022-08-17T20:03:26.306Z,27.00
2022-08-17T20:06:12.143Z,25.10
2022-08-17T20:08:49.085Z,25.00
2022-08-17T20:11:21.118Z,24.90
2022-08-17T20:13:51.068Z,24.50
2022-08-17T20:16:19.310Z,25.20
2022-08-17T20:21:37.721Z,24.50
2022-08-17T20:24:12.992Z,26.70
2022-08-17T20:26:57.894Z,24.60
2022-08-17T20:29:36.890Z,27.70
2022-08-17T20:32:12.904Z,25.00
2022-08-17T20:34:39.831Z,24.50
2022-08-17T20:37:08.591Z,25.20
2022-08-17T20:39:41.704Z,24.00
2022-08-17T20:42:12.534Z,24.60
2022-08-17T20:44:40.907Z,25.70
2022-08-17T20:47:11.186Z,24.30
2022-08-17T20:49:47.187Z,26.10
2022-08-17T20:52:18.529Z,24.50
2022-08-17T20:54:52.736Z,24.80
2022-08-17T20:57:28.578Z,24.90
2022-08-17T20:59:57.104Z,24.90
2022-08-17T21:02:25.698Z,23.90
2022-08-17T21:04:56.605Z,24.10
2022-08-17T21:07:47.009Z,25.30
2022-08-17T21:10:26.196Z,25.40
2022-08-17T21:13:00.154Z,24.20
2022-08-17T21:15:45.923Z,24.60
2022-08-17T21:18:19.624Z,24.30
2022-08-17T21:20:59.583Z,25.10
2022-08-17T21:23:35.531Z,26.30
2022-08-17T21:26:02.577Z,26.60
2022-08-17T21:28:33.883Z,23.60
2022-08-17T21:31:08.458Z,24.40
2022-08-17T21:33:37.880Z,23.50
2022-08-17T21:38:37.276Z,24.90
2022-08-17T21:43:33.991Z,24.40
2022-08-17T21:48:30.505Z,24.70
2022-08-17T21:51:10.299Z,24.50
2022-08-17T21:53:44.098Z,24.30
2022-08-17T21:56:12.110Z,24.20
2022-08-17T21:58:44.438Z,24.10
2022-08-17T22:01:28.077Z,24.40
2022-08-17T22:04:04.077Z,24.20
2022-08-17T22:06:37.166Z,24.50
2022-08-17T22:09:12.292Z,24.00
2022-08-17T22:11:57.883Z,24.20
2022-08-17T22:14:26.436Z,24.20
2022-08-17T22:17:22.564Z,24.80
2022-08-17T22:19:58.632Z,24.50
2022-08-17T22:22:30.958Z,25.10
2022-08-17T22:25:01.580Z,24.80
2022-08-17T22:27:45.772Z,24.50
2022-08-17T22:32:44.722Z,24.50
2022-08-17T22:35:35.090Z,22.90
2022-08-17T22:38:31.688Z,24.60
2022-08-17T22:41:14.590Z,24.60
2022-08-17T22:43:43.799Z,23.60
2022-08-17T22:46:12.429Z,24.10
2022-08-17T22:51:12.824Z,23.70
2022-08-17T22:54:13.131Z,24.10
2022-08-17T22:57:05.861Z,23.80
2022-08-17T22:59:44.599Z,23.60
2022-08-17T23:02:14.742Z,23.60
2022-08-17T23:04:43.267Z,23.40
2022-08-17T23:07:10.364Z,23.20
2022-08-17T23:09:37.824Z,23.60
2022-08-17T23:12:11.682Z,23.90
2022-08-17T23:14:41.046Z,23.60
2022-08-17T23:17:07.965Z,23.50
2022-08-17T23:19:35.103Z,23.70
2022-08-17T23:22:04.186Z,24.30
2022-08-17T23:24:33.050Z,23.80
2022-08-17T23:26:59.976Z,23.90
2022-08-17T23:29:29.498Z,23.70
2022-08-17T23:34:25.676Z,23.80
2022-08-17T23:36:53.114Z,24.30
2022-08-17T23:39:27.749Z,24.10
2022-08-17T23:41:57.288Z,23.90
2022-08-17T23:44:24.536Z,22.60
2022-08-17T23:46:52.168Z,23.90
2022-08-17T23:49:19.449Z,22.50
2022-08-17T23:51:47.197Z,24.70
2022-08-17T23:54:22.735Z,23.70
2022-08-17T23:56:49.700Z,23.60
2022-08-17T23:59:17.882Z,24.50
